Time;durP1;ratioP1;P1;durP2;ratioP2;P2;SDS_P1;SDS_P2;PMS_P1;PMS_P2;Temp;Humidity;BMP_temperature;BMP_pressure;BME280_temperature;BME280_humidity;BME280_pressure;Samples;Min_cycle;Max_cycle;Signal;HPM_P1;HPM_P2
2021/04/16 00:00:06;;;;;;;2.38;1.50;;;1.90;99.90;;;;;;5049967;28;20483;-57
2021/04/16 00:02:32;;;;;;;3.63;1.60;;;1.90;99.90;;;;;;5050473;28;20155;-57
2021/04/16 00:04:57;;;;;;;22.67;2.33;;;1.80;99.90;;;;;;5050259;28;20454;-58
2021/04/16 00:07:23;;;;;;;3.63;1.88;;;1.80;99.90;;;;;;5050440;28;20777;-57
2021/04/16 00:09:49;;;;;;;9.13;2.03;;;1.70;99.90;;;;;;5049777;28;20155;-56
2021/04/16 00:12:14;;;;;;;5.13;1.90;;;1.70;99.90;;;;;;5049867;28;20041;-57
2021/04/16 00:14:40;;;;;;;6.60;2.17;;;1.80;99.90;;;;;;5050105;28;20079;-52
2021/04/16 00:17:06;;;;;;;5.50;2.28;;;1.80;99.90;;;;;;5050320;28;20032;-59
2021/04/16 00:19:32;;;;;;;8.88;3.03;;;1.90;99.90;;;;;;5049587;28;20535;-57
2021/04/16 00:21:58;;;;;;;12.65;2.65;;;1.90;99.90;;;;;;5050234;28;20475;-58
2021/04/16 00:24:24;;;;;;;5.47;2.30;;;1.90;99.90;;;;;;5052411;28;20053;-59
2021/04/16 00:26:50;;;;;;;5.53;2.70;;;1.90;99.90;;;;;;5053380;28;20029;-55
2021/04/16 00:29:16;;;;;;;8.48;2.60;;;2.00;99.90;;;;;;5053447;28;20110;-58
2021/04/16 00:31:50;;;;;;;4.93;2.58;;;2.00;99.90;;;;;;5053109;28;20414;-56
2021/04/16 00:34:18;;;;;;;51.17;7.63;;;2.00;99.90;;;;;;5053650;28;20094;-54
2021/04/16 00:36:44;;;;;;;11.27;2.85;;;2.00;99.90;;;;;;5053913;28;20025;-57
2021/04/16 00:39:10;;;;;;;10.13;3.42;;;2.00;99.90;;;;;;5053428;28;20107;-55
2021/04/16 00:41:36;;;;;;;14.43;3.67;;;2.00;99.90;;;;;;5053508;28;20033;-56
2021/04/16 00:44:03;;;;;;;9.32;2.97;;;2.00;99.90;;;;;;5053638;28;20062;-53
2021/04/16 00:46:34;;;;;;;15.63;2.80;;;2.00;99.90;;;;;;5053134;28;20032;-56
2021/04/16 00:49:04;;;;;;;8.98;2.65;;;2.00;99.90;;;;;;5053405;28;20033;-58
2021/04/16 00:51:53;;;;;;;4.57;2.20;;;1.90;99.90;;;;;;5053638;28;20033;-57
2021/04/16 00:54:25;;;;;;;11.35;2.78;;;1.90;99.90;;;;;;5050895;28;20517;-54
2021/04/16 00:56:52;;;;;;;6.45;2.80;;;1.80;99.90;;;;;;5053165;28;20029;-57
2021/04/16 00:59:21;;;;;;;7.10;2.40;;;1.70;99.90;;;;;;5053125;28;20179;-56
2021/04/16 01:01:47;;;;;;;6.13;2.55;;;1.70;99.90;;;;;;5053053;28;20475;-57
2021/04/16 01:04:13;;;;;;;6.68;2.10;;;1.70;99.90;;;;;;5053724;28;20070;-55
2021/04/16 01:06:39;;;;;;;6.55;2.13;;;1.70;99.90;;;;;;5053009;28;20048;-58
2021/04/16 01:09:05;;;;;;;4.97;2.30;;;1.60;99.90;;;;;;5053517;28;20037;-56
2021/04/16 01:11:31;;;;;;;6.68;2.40;;;1.50;99.90;;;;;;5052739;28;20669;-60
2021/04/16 01:13:57;;;;;;;3.95;2.10;;;1.50;99.90;;;;;;5053097;28;20040;-56
2021/04/16 01:16:29;;;;;;;5.68;2.60;;;1.40;99.90;;;;;;5052556;28;20040;-58
2021/04/16 01:18:58;;;;;;;4.35;2.40;;;1.40;99.90;;;;;;5052833;28;20036;-58
2021/04/16 01:21:34;;;;;;;5.93;2.45;;;1.40;99.90;;;;;;5052791;28;20024;-58
2021/04/16 01:24:37;;;;;;;4.50;2.20;;;1.40;99.90;;;;;;5051307;28;20427;-60
2021/04/16 01:27:12;;;;;;;7.55;2.50;;;1.40;99.90;;;;;;5052274;28;20089;-55
2021/04/16 01:29:44;;;;;;;6.18;2.60;;;1.40;99.90;;;;;;5052693;28;20042;-58
2021/04/16 01:32:32;;;;;;;7.68;2.70;;;1.30;99.90;;;;;;5052425;28;20067;-53
2021/04/16 01:34:58;;;;;;;11.02;2.78;;;1.30;99.90;;;;;;5052011;28;20053;-55
2021/04/16 01:37:27;;;;;;;9.40;2.63;;;1.30;99.90;;;;;;5050045;28;20044;-57
2021/04/16 01:39:54;;;;;;;7.25;2.28;;;1.30;99.90;;;;;;5051980;28;20094;-56
2021/04/16 01:42:20;;;;;;;9.98;2.67;;;1.30;99.90;;;;;;5052437;28;20031;-57
2021/04/16 01:44:46;;;;;;;6.53;2.20;;;1.30;99.90;;;;;;5052386;28;20075;-56
2021/04/16 01:47:13;;;;;;;5.60;2.13;;;1.30;99.90;;;;;;5051876;28;20465;-57
2021/04/16 01:49:47;;;;;;;29.42;4.07;;;1.20;99.90;;;;;;5052548;28;20048;-54
2021/04/16 01:52:16;;;;;;;6.25;2.30;;;1.20;99.90;;;;;;5052154;28;20045;-56
2021/04/16 01:54:50;;;;;;;6.47;2.35;;;1.20;99.90;;;;;;5051369;28;20032;-55
2021/04/16 01:57:22;;;;;;;9.02;2.65;;;1.20;99.90;;;;;;5051979;28;20119;-58
2021/04/16 01:59:50;;;;;;;16.70;3.50;;;1.20;99.90;;;;;;5051897;28;20057;-57
2021/04/16 02:02:28;;;;;;;6.57;2.80;;;1.10;99.90;;;;;;5052256;28;20071;-57
2021/04/16 02:04:54;;;;;;;33.38;4.65;;;1.10;99.90;;;;;;5051766;28;20037;-57
2021/04/16 02:07:20;;;;;;;8.25;2.70;;;1.10;99.90;;;;;;5051994;28;20040;-54
2021/04/16 02:09:46;;;;;;;7.55;2.80;;;1.00;99.90;;;;;;5051982;28;20430;-54
2021/04/16 02:12:14;;;;;;;7.18;2.45;;;1.00;99.90;;;;;;5051544;28;20483;-52
2021/04/16 02:14:40;;;;;;;7.90;2.40;;;1.00;99.90;;;;;;5052455;28;20103;-57
2021/04/16 02:17:17;;;;;;;5.20;2.30;;;1.00;99.90;;;;;;5051152;28;20355;-56
2021/04/16 02:19:43;;;;;;;6.32;2.60;;;1.00;99.90;;;;;;5052314;28;20037;-57
2021/04/16 02:22:18;;;;;;;5.10;2.42;;;1.00;99.90;;;;;;5051094;28;20029;-58
2021/04/16 02:24:45;;;;;;;5.13;2.85;;;1.00;99.90;;;;;;5051842;28;20102;-56
2021/04/16 02:27:12;;;;;;;5.32;2.80;;;0.90;99.90;;;;;;5051568;28;20056;-56
2021/04/16 02:29:38;;;;;;;5.13;2.53;;;1.00;99.90;;;;;;5049296;28;20360;-56
2021/04/16 02:32:05;;;;;;;5.45;2.60;;;1.00;99.90;;;;;;5051510;28;20040;-57
2021/04/16 02:34:31;;;;;;;7.70;2.78;;;0.90;99.90;;;;;;5051231;28;20065;-55
2021/04/16 02:37:00;;;;;;;115.85;9.07;;;0.90;99.90;;;;;;5050937;28;20443;-57
2021/04/16 02:39:27;;;;;;;5.70;2.47;;;0.90;99.90;;;;;;5051600;28;20029;-55
2021/04/16 02:41:53;;;;;;;11.43;2.83;;;0.90;99.90;;;;;;5051445;28;20045;-54
2021/04/16 02:44:20;;;;;;;11.35;2.78;;;0.80;99.90;;;;;;5050818;28;20394;-58
2021/04/16 02:46:46;;;;;;;7.85;2.63;;;0.80;99.90;;;;;;5050171;28;20577;-55
2021/04/16 02:49:12;;;;;;;11.20;3.35;;;0.80;99.90;;;;;;5051417;28;20064;-56
2021/04/16 02:51:38;;;;;;;9.02;3.25;;;0.80;99.90;;;;;;5050734;28;20032;-55
2021/04/16 02:54:05;;;;;;;8.88;2.85;;;0.80;99.90;;;;;;5050899;28;20041;-56
2021/04/16 02:56:30;;;;;;;4.88;2.58;;;0.70;99.90;;;;;;5050461;28;20376;-57
2021/04/16 02:58:57;;;;;;;8.40;2.75;;;0.70;99.90;;;;;;5043866;28;20036;-55
2021/04/16 03:01:25;;;;;;;11.90;2.92;;;0.70;99.90;;;;;;5050574;28;20063;-54
2021/04/16 03:03:50;;;;;;;9.93;2.40;;;0.70;99.90;;;;;;5050358;28;20041;-58
2021/04/16 03:06:16;;;;;;;12.73;3.47;;;0.70;99.90;;;;;;5050788;28;20382;-57
2021/04/16 03:08:42;;;;;;;10.50;2.90;;;0.70;99.90;;;;;;5050357;28;20025;-58
2021/04/16 03:11:09;;;;;;;12.90;3.13;;;0.60;99.90;;;;;;5051266;28;20025;-57
2021/04/16 03:13:35;;;;;;;6.45;2.70;;;0.60;99.90;;;;;;5050749;28;20033;-58
2021/04/16 03:16:01;;;;;;;104.95;9.85;;;0.60;99.90;;;;;;5050764;28;20082;-58
2021/04/16 03:18:27;;;;;;;6.38;2.60;;;0.60;99.90;;;;;;5050156;28;20108;-57
2021/04/16 03:20:54;;;;;;;5.22;2.72;;;0.60;99.90;;;;;;5051264;28;20036;-57
2021/04/16 03:23:19;;;;;;;3.92;2.30;;;0.50;99.90;;;;;;5049599;28;20031;-57
2021/04/16 03:25:45;;;;;;;12.82;3.00;;;0.50;99.90;;;;;;5050114;28;20045;-56
2021/04/16 03:28:11;;;;;;;16.23;3.50;;;0.40;99.90;;;;;;5050034;28;20053;-56
2021/04/16 03:30:37;;;;;;;13.43;3.28;;;0.40;99.90;;;;;;5051196;28;20090;-55
2021/04/16 03:33:03;;;;;;;327.17;26.77;;;0.30;99.90;;;;;;5050741;28;20095;-55
2021/04/16 03:35:29;;;;;;;9.50;3.30;;;0.40;99.90;;;;;;5050893;28;20029;-57
2021/04/16 03:37:55;;;;;;;13.82;2.80;;;0.40;99.90;;;;;;5049966;28;20025;-59
2021/04/16 03:40:26;;;;;;;11.75;3.53;;;0.30;99.90;;;;;;5050378;28;20024;-57
2021/04/16 03:42:52;;;;;;;11.80;3.13;;;0.30;99.90;;;;;;5049844;28;20028;-57
2021/04/16 03:45:18;;;;;;;11.73;3.78;;;0.30;99.90;;;;;;5049943;28;20118;-57
2021/04/16 03:47:45;;;;;;;38.22;5.00;;;0.30;99.90;;;;;;5050180;28;20068;-57
2021/04/16 03:50:14;;;;;;;10.25;3.05;;;0.40;99.90;;;;;;5050417;28;20021;-57
2021/04/16 03:52:40;;;;;;;9.30;3.22;;;0.40;99.90;;;;;;5049948;28;20028;-55
2021/04/16 03:55:07;;;;;;;22.20;3.83;;;0.40;99.90;;;;;;5050103;28;20041;-57
2021/04/16 03:57:33;;;;;;;21.92;3.97;;;0.40;99.90;;;;;;5052289;28;20498;-56
2021/04/16 03:59:58;;;;;;;10.07;3.60;;;0.50;99.90;;;;;;5054605;28;20024;-59
2021/04/16 04:02:24;;;;;;;17.88;3.60;;;0.60;99.90;;;;;;5054525;28;20033;-58
2021/04/16 04:04:50;;;;;;;21.15;4.05;;;0.60;99.90;;;;;;5054376;28;20070;-58
2021/04/16 04:07:17;;;;;;;57.08;5.97;;;0.70;99.90;;;;;;5054149;28;20082;-56
2021/04/16 04:09:42;;;;;;;21.95;4.75;;;0.70;99.90;;;;;;5054198;28;20116;-58
2021/04/16 04:12:09;;;;;;;12.52;4.18;;;0.70;99.90;;;;;;5053881;28;20885;-57
2021/04/16 04:14:35;;;;;;;21.83;5.45;;;0.70;99.90;;;;;;5054237;28;20029;-59
2021/04/16 04:17:03;;;;;;;19.80;6.50;;;0.70;99.90;;;;;;5054461;28;20526;-57
2021/04/16 04:19:31;;;;;;;25.80;7.80;;;0.70;99.90;;;;;;5054206;28;20060;-58
2021/04/16 04:21:58;;;;;;;44.08;9.63;;;0.70;99.90;;;;;;5042740;28;20083;-56
2021/04/16 04:24:24;;;;;;;31.75;10.00;;;0.80;99.90;;;;;;5053686;28;20053;-55
2021/04/16 04:26:51;;;;;;;40.10;10.40;;;0.80;99.90;;;;;;5052775;28;20373;-58
2021/04/16 04:29:20;;;;;;;70.25;11.75;;;0.80;99.90;;;;;;5053716;28;20025;-55
2021/04/16 04:31:49;;;;;;;54.47;12.13;;;0.80;99.90;;;;;;5053809;28;20033;-58
2021/04/16 04:34:18;;;;;;;108.90;11.65;;;1.00;99.90;;;;;;5054235;28;20033;-54
2021/04/16 04:36:44;;;;;;;33.55;12.23;;;1.10;99.90;;;;;;5053590;28;20029;-58
2021/04/16 04:39:12;;;;;;;51.42;12.50;;;1.10;99.90;;;;;;5054064;28;20528;-54
2021/04/16 04:41:38;;;;;;;35.00;12.77;;;1.10;99.90;;;;;;5053348;28;20028;-57
2021/04/16 04:44:04;;;;;;;77.32;13.95;;;1.10;99.90;;;;;;5053369;28;20540;-57
2021/04/16 04:46:30;;;;;;;137.63;12.88;;;1.10;99.90;;;;;;5053558;28;20033;-58
2021/04/16 04:48:56;;;;;;;137.23;12.93;;;1.10;99.90;;;;;;5053444;28;20083;-56
2021/04/16 04:51:21;;;;;;;120.63;12.82;;;1.10;99.90;;;;;;5053680;28;20033;-56
2021/04/16 04:53:47;;;;;;;119.50;12.70;;;1.00;99.90;;;;;;5053511;28;20111;-54
2021/04/16 04:56:13;;;;;;;93.78;13.23;;;1.00;99.90;;;;;;5053207;28;20071;-56
2021/04/16 04:58:39;;;;;;;133.50;12.98;;;1.00;99.90;;;;;;5053063;28;20033;-57
2021/04/16 05:01:04;;;;;;;147.27;11.45;;;1.00;99.90;;;;;;5053389;28;20040;-56
2021/04/16 05:03:30;;;;;;;134.27;10.80;;;1.10;99.90;;;;;;5053480;28;20107;-57
2021/04/16 05:05:56;;;;;;;133.40;10.82;;;1.10;99.90;;;;;;5052899;28;20394;-55
2021/04/16 05:08:21;;;;;;;147.10;10.13;;;1.20;99.90;;;;;;5052549;28;20459;-56
2021/04/16 05:10:47;;;;;;;163.13;10.93;;;1.20;99.90;;;;;;5053036;28;20037;-56
2021/04/16 05:13:13;;;;;;;200.02;12.70;;;1.30;99.90;;;;;;5052607;28;20029;-58
2021/04/16 05:15:38;;;;;;;110.90;12.43;;;1.30;99.90;;;;;;5052633;28;20452;-57
2021/04/16 05:18:04;;;;;;;155.68;11.68;;;1.30;99.90;;;;;;5052730;28;20033;-57
2021/04/16 05:20:30;;;;;;;213.10;12.35;;;1.30;99.90;;;;;;5053317;28;20104;-56
2021/04/16 05:22:56;;;;;;;134.48;10.90;;;1.40;99.90;;;;;;5052588;28;20124;-56
2021/04/16 05:25:21;;;;;;;219.32;12.52;;;1.50;99.90;;;;;;5052363;28;20045;-56
2021/04/16 05:27:48;;;;;;;110.88;11.55;;;1.50;99.90;;;;;;5051314;28;20029;-58
2021/04/16 05:30:14;;;;;;;94.40;10.88;;;1.50;99.90;;;;;;5052391;28;20025;-56
2021/04/16 05:32:40;;;;;;;104.68;11.73;;;1.40;99.90;;;;;;5052994;28;20040;-55
2021/04/16 05:35:07;;;;;;;190.43;11.90;;;1.40;99.90;;;;;;5052537;28;20029;-58
2021/04/16 05:37:33;;;;;;;152.57;12.70;;;1.40;99.90;;;;;;5052214;28;20120;-57
2021/04/16 05:39:58;;;;;;;171.65;12.40;;;1.50;99.90;;;;;;5052800;28;20111;-59
2021/04/16 05:42:24;;;;;;;217.07;12.35;;;1.50;99.90;;;;;;5052154;28;20052;-57
2021/04/16 05:44:50;;;;;;;169.82;12.75;;;1.50;99.90;;;;;;5052990;28;20036;-57
2021/04/16 05:47:16;;;;;;;142.60;10.55;;;1.60;99.90;;;;;;5050746;28;20025;-58
2021/04/16 05:49:42;;;;;;;200.18;12.15;;;1.50;99.90;;;;;;5052139;28;20060;-58
2021/04/16 05:52:08;;;;;;;104.43;11.57;;;1.50;99.90;;;;;;5051921;28;20372;-58
2021/04/16 05:54:34;;;;;;;148.10;11.38;;;1.70;99.90;;;;;;5051943;28;20032;-57
2021/04/16 05:56:59;;;;;;;162.75;11.60;;;1.70;99.90;;;;;;5043060;28;20452;-59
2021/04/16 05:59:25;;;;;;;125.72;12.32;;;1.70;99.90;;;;;;5052176;28;20036;-55
2021/04/16 06:01:51;;;;;;;131.02;11.95;;;1.70;99.90;;;;;;5050926;28;20029;-55
2021/04/16 06:04:20;;;;;;;149.88;10.77;;;1.70;99.90;;;;;;5052061;28;20036;-55
2021/04/16 06:06:46;;;;;;;101.22;9.75;;;1.60;99.90;;;;;;5051609;28;20037;-55
2021/04/16 06:09:12;;;;;;;100.90;9.80;;;1.70;99.90;;;;;;5051982;28;20083;-60
2021/04/16 06:11:38;;;;;;;95.97;9.27;;;1.70;99.90;;;;;;5051691;28;20037;-57
2021/04/16 06:14:04;;;;;;;81.80;8.43;;;1.70;99.90;;;;;;5050872;28;20037;-58
2021/04/16 06:16:30;;;;;;;83.05;9.55;;;1.60;99.90;;;;;;5051423;28;20037;-55
2021/04/16 06:18:55;;;;;;;130.45;10.63;;;1.60;99.90;;;;;;5051619;28;20036;-54
2021/04/16 06:21:21;;;;;;;59.97;9.23;;;1.60;99.90;;;;;;5050793;28;20037;-58
2021/04/16 06:23:47;;;;;;;67.53;9.35;;;1.70;99.90;;;;;;5051363;28;20029;-56
2021/04/16 06:26:12;;;;;;;171.93;10.38;;;1.80;99.90;;;;;;5050621;28;20041;-53
2021/04/16 06:28:38;;;;;;;90.25;10.23;;;1.80;99.90;;;;;;5050532;28;20402;-53
2021/04/16 06:31:04;;;;;;;129.07;10.20;;;1.80;99.90;;;;;;5051179;28;20062;-57
2021/04/16 06:33:32;;;;;;;88.43;9.32;;;1.90;99.90;;;;;;5051641;28;20457;-56
2021/04/16 06:36:05;;;;;;;95.05;9.07;;;1.90;99.90;;;;;;5051018;28;20052;-56
2021/04/16 06:38:37;;;;;;;113.22;10.07;;;1.90;99.90;;;;;;5051512;28;20493;-59
2021/04/16 06:41:12;;;;;;;55.75;9.20;;;2.00;99.90;;;;;;5049696;28;20029;-57
2021/04/16 06:43:42;;;;;;;;;;;2.10;99.90;;;;;;5051994;28;20371;-54
2021/04/16 06:46:12;;;;;;;43.30;7.82;;;2.00;99.90;;;;;;5050871;28;20022;-59
2021/04/16 06:48:39;;;;;;;28.77;9.10;;;2.20;99.90;;;;;;5052495;28;20104;-56
2021/04/16 06:51:06;;;;;;;24.48;9.90;;;2.40;99.90;;;;;;5050928;28;20108;-59
2021/04/16 06:53:56;;;;;;;100.95;8.50;;;2.50;99.90;;;;;;5051157;28;20037;-55
2021/04/16 06:56:31;;;;;;;26.90;8.48;;;2.50;99.90;;;;;;5049959;28;20474;-58
2021/04/16 06:59:01;;;;;;;49.90;10.00;;;2.50;99.90;;;;;;5050799;28;20025;-55
2021/04/16 07:01:45;;;;;;;269.67;80.78;;;2.70;99.90;;;;;;5050502;28;20028;-53
2021/04/16 07:04:19;;;;;;;53.83;9.77;;;2.70;99.90;;;;;;5046916;28;20040;-55
2021/04/16 07:06:45;;;;;;;123.63;10.73;;;2.70;99.90;;;;;;5048223;28;20086;-58
2021/04/16 07:09:13;;;;;;;109.55;11.88;;;2.70;99.90;;;;;;5049892;28;20082;-55
2021/04/16 07:11:51;;;;;;;78.47;9.13;;;2.70;99.90;;;;;;5050206;28;20056;-55
2021/04/16 07:14:27;;;;;;;65.20;9.23;;;2.80;99.90;;;;;;5050727;28;20750;-57
2021/04/16 07:16:54;;;;;;;73.10;10.50;;;2.80;99.90;;;;;;5045905;28;20040;-54
2021/04/16 07:19:24;;;;;;;38.55;9.68;;;2.90;99.90;;;;;;5050568;28;20029;-55
2021/04/16 07:22:06;;;;;;;46.50;10.57;;;2.90;99.90;;;;;;5050203;28;20025;-56
2021/04/16 07:24:33;;;;;;;24.77;7.68;;;3.00;99.90;;;;;;5049120;28;20678;-54
2021/04/16 07:27:25;;;;;;;28.95;8.05;;;3.10;99.90;;;;;;5050076;28;20043;-54
2021/04/16 07:29:54;;;;;;;27.38;8.75;;;3.20;99.90;;;;;;5048923;28;20033;-57
2021/04/16 07:32:26;;;;;;;51.35;9.57;;;3.30;99.90;;;;;;5044976;28;20128;-56
2021/04/16 07:34:54;;;;;;;37.17;9.25;;;3.40;99.90;;;;;;5044656;28;20375;-58
2021/04/16 07:37:27;;;;;;;28.67;9.07;;;3.40;99.90;;;;;;5050214;28;20804;-58
2021/04/16 07:40:06;;;;;;;30.80;8.82;;;3.50;99.90;;;;;;5049687;28;20415;-59
2021/04/16 07:42:46;;;;;;;24.90;9.57;;;3.50;99.90;;;;;;5050142;28;20047;-57
2021/04/16 07:45:24;;;;;;;37.58;10.00;;;3.60;99.90;;;;;;5046219;28;20261;-57
2021/04/16 07:48:12;;;;;;;18.67;8.95;;;3.70;99.90;;;;;;5049982;28;20426;-59
2021/04/16 07:50:45;;;;;;;22.38;8.70;;;3.90;99.90;;;;;;5037885;28;20462;-58
2021/04/16 07:53:32;;;;;;;32.22;7.78;;;4.10;99.90;;;;;;5049968;28;20479;-59
2021/04/16 07:56:10;;;;;;;23.55;7.07;;;4.20;99.90;;;;;;5047411;28;20037;-58
2021/04/16 07:58:36;;;;;;;15.27;6.57;;;4.40;99.90;;;;;;5050435;28;20475;-58
2021/04/16 08:01:17;;;;;;;19.90;7.25;;;4.70;99.90;;;;;;5050231;28;20032;-58
2021/04/16 08:03:45;;;;;;;23.38;6.95;;;4.80;99.90;;;;;;5038484;28;20480;-55
2021/04/16 08:06:48;;;;;;;54.85;11.10;;;4.90;99.90;;;;;;5050155;28;20105;-59
2021/04/16 08:09:28;;;;;;;35.17;7.22;;;5.00;99.90;;;;;;5019396;28;20108;-55
2021/04/16 08:12:00;;;;;;;15.30;4.95;;;5.30;99.90;;;;;;5039017;28;20041;-58
2021/04/16 08:14:29;;;;;;;47.05;6.68;;;5.50;99.90;;;;;;5050275;28;20045;-57
2021/04/16 08:17:15;;;;;;;55.85;5.78;;;5.50;99.90;;;;;;5049799;28;20502;-57
2021/04/16 08:19:41;;;;;;;119.72;12.73;;;5.70;99.90;;;;;;5049229;28;20064;-56
2021/04/16 08:22:21;;;;;;;25.15;4.82;;;6.20;99.90;;;;;;5047832;28;20450;-58
2021/04/16 08:24:58;;;;;;;15.98;4.30;;;6.60;99.90;;;;;;5047323;28;20088;-58
2021/04/16 08:27:56;;;;;;;8.63;3.83;;;6.80;99.90;;;;;;5045464;28;20025;-56
2021/04/16 08:30:30;;;;;;;29.17;4.18;;;7.20;99.90;;;;;;5049242;28;20386;-57
2021/04/16 08:33:11;;;;;;;48.17;5.30;;;7.60;99.90;;;;;;5048887;28;20033;-60
2021/04/16 08:35:52;;;;;;;79.10;7.20;;;8.00;99.90;;;;;;5045495;28;20031;-56
2021/04/16 08:38:22;;;;;;;84.90;8.52;;;8.40;99.90;;;;;;5049280;28;20115;-56
2021/04/16 08:40:51;;;;;;;40.05;6.13;;;8.70;99.90;;;;;;5047439;28;20053;-57
2021/04/16 08:43:42;;;;;;;11.38;4.03;;;8.80;99.90;;;;;;5048178;28;20422;-58
2021/04/16 08:46:30;;;;;;;71.13;7.40;;;8.80;99.90;;;;;;5048919;28;20025;-56
2021/04/16 08:49:04;;;;;;;55.13;7.10;;;9.10;99.90;;;;;;5050244;28;20049;-57
2021/04/16 08:51:34;;;;;;;103.15;10.18;;;9.30;99.90;;;;;;5051542;28;20425;-55
2021/04/16 08:54:07;;;;;;;33.70;5.30;;;9.30;99.90;;;;;;5051837;28;20510;-56
2021/04/16 08:56:48;;;;;;;78.03;7.00;;;9.20;99.90;;;;;;5047262;28;20048;-55
2021/04/16 08:59:16;;;;;;;26.42;4.68;;;9.00;99.90;;;;;;5047412;28;20090;-55
2021/04/16 09:02:14;;;;;;;56.30;7.22;;;8.90;99.90;;;;;;5049381;28;20475;-56
2021/04/16 09:04:53;;;;;;;120.15;9.68;;;9.20;99.90;;;;;;5047897;28;20033;-54
2021/04/16 09:07:36;;;;;;;117.15;12.45;;;9.30;99.90;;;;;;5051488;28;20367;-56
2021/04/16 09:10:07;;;;;;;40.88;5.80;;;9.70;99.90;;;;;;5050220;28;20028;-58
2021/04/16 09:12:38;;;;;;;60.00;7.35;;;9.70;99.90;;;;;;5051400;28;20403;-59
2021/04/16 09:15:21;;;;;;;107.60;10.32;;;9.80;99.90;;;;;;5052991;28;20040;-61
2021/04/16 09:17:52;;;;;;;30.90;5.93;;;10.00;99.90;;;;;;5052586;28;20075;-58
2021/04/16 09:20:23;;;;;;;29.63;5.75;;;9.90;99.90;;;;;;5052932;28;20036;-60
2021/04/16 09:22:51;;;;;;;57.50;6.63;;;9.70;99.90;;;;;;5052528;28;20033;-58
2021/04/16 09:25:35;;;;;;;70.10;7.95;;;9.50;99.90;;;;;;5050859;28;20102;-54
2021/04/16 09:28:22;;;;;;;28.00;6.72;;;9.40;99.90;;;;;;5049981;28;20395;-64
2021/04/16 09:30:52;;;;;;;61.00;8.60;;;9.30;99.90;;;;;;5047255;28;20033;-62
2021/04/16 09:33:22;;;;;;;108.32;12.32;;;9.30;99.90;;;;;;5051874;28;20033;-60
2021/04/16 09:35:57;;;;;;;30.63;5.65;;;9.60;99.90;;;;;;5052544;28;20032;-62
2021/04/16 09:38:30;;;;;;;33.42;6.68;;;9.80;99.90;;;;;;5052472;28;20086;-57
2021/04/16 09:41:31;;;;;;;23.67;5.47;;;9.80;99.90;;;;;;5052628;28;20372;-55
2021/04/16 09:44:29;;;;;;;27.98;5.63;;;9.90;99.90;;;;;;5047926;28;20395;-59
2021/04/16 09:47:01;;;;;;;27.05;5.57;;;10.00;99.90;;;;;;5053458;28;20090;-57
2021/04/16 09:49:39;;;;;;;53.72;7.57;;;10.30;99.90;;;;;;5051933;28;20107;-56
2021/04/16 09:52:26;;;;;;;61.13;8.25;;;10.30;99.90;;;;;;5052103;28;20052;-54
2021/04/16 09:54:53;;;;;;;105.38;10.63;;;10.70;99.90;;;;;;5043942;28;20071;-57
2021/04/16 09:57:19;;;;;;;15.43;4.68;;;10.70;99.90;;;;;;5051620;28;20087;-57
2021/04/16 09:59:46;;;;;;;81.80;8.55;;;10.50;99.90;;;;;;5049554;28;20425;-57
2021/04/16 10:02:16;;;;;;;29.05;5.00;;;10.40;99.90;;;;;;5053273;28;20075;-58
2021/04/16 10:04:54;;;;;;;69.32;8.05;;;10.70;99.90;;;;;;5048598;28;20082;-57
2021/04/16 10:07:22;;;;;;;46.00;6.75;;;10.80;99.90;;;;;;5051639;28;20471;-57
2021/04/16 10:09:48;;;;;;;15.63;4.30;;;11.20;99.90;;;;;;5051317;28;20036;-56
2021/04/16 10:12:30;;;;;;;83.15;9.98;;;11.30;99.90;;;;;;5051519;28;20029;-57
2021/04/16 10:14:56;;;;;;;18.92;4.25;;;11.40;99.90;;;;;;5049743;28;20122;-56
2021/04/16 10:17:25;;;;;;;21.10;4.97;;;11.40;99.90;;;;;;5050947;28;20025;-56
2021/04/16 10:20:07;;;;;;;11.57;4.15;;;11.50;99.90;;;;;;5051090;28;20690;-57
2021/04/16 10:22:38;;;;;;;19.38;4.60;;;11.20;99.90;;;;;;5049269;28;20448;-56
2021/04/16 12:38:50;;;;;;;7.93;3.15;;;11.90;99.10;;;;;;5053837;28;20043;-57
2021/04/16 12:41:47;;;;;;;13.60;3.97;;;12.00;97.70;;;;;;5052340;28;20070;-58
2021/04/16 12:44:33;;;;;;;13.32;3.80;;;12.00;97.60;;;;;;5050683;28;20119;-60
2021/04/16 12:47:06;;;;;;;9.25;3.55;;;12.30;96.80;;;;;;5045948;28;20113;-58
2021/04/16 12:49:32;;;;;;;14.93;4.38;;;12.30;97.00;;;;;;5052496;28;20346;-57
2021/04/16 12:51:58;;;;;;;12.43;3.70;;;12.20;99.30;;;;;;5053127;28;20025;-59
2021/04/16 12:54:24;;;;;;;11.70;3.72;;;12.10;99.50;;;;;;5052025;28;20041;-58
2021/04/16 12:56:50;;;;;;;11.20;3.60;;;12.20;99.50;;;;;;5050530;28;20166;-56
2021/04/16 12:59:24;;;;;;;5.88;2.92;;;12.20;98.80;;;;;;5052485;28;20064;-59
2021/04/16 13:01:52;;;;;;;7.95;3.20;;;12.00;98.00;;;;;;5052634;28;20514;-57
2021/04/16 13:04:20;;;;;;;18.10;3.97;;;11.80;98.30;;;;;;5052982;28;20487;-56
2021/04/16 13:06:48;;;;;;;11.80;3.72;;;11.70;99.10;;;;;;5052705;28;20057;-58
2021/04/16 13:09:17;;;;;;;12.02;3.38;;;11.70;99.10;;;;;;5053281;28;20483;-54
2021/04/16 13:11:42;;;;;;;5.75;3.25;;;11.70;98.70;;;;;;5053140;28;20025;-58
2021/04/16 13:14:08;;;;;;;17.02;3.50;;;11.80;98.30;;;;;;5050671;28;20034;-57
2021/04/16 13:16:36;;;;;;;9.68;3.40;;;11.80;98.60;;;;;;5050492;28;20391;-56
2021/04/16 13:19:07;;;;;;;12.35;3.80;;;11.70;99.20;;;;;;5052643;28;20027;-58
2021/04/16 13:21:38;;;;;;;18.48;4.60;;;11.70;98.60;;;;;;5052330;28;20044;-58
2021/04/16 13:24:06;;;;;;;10.45;3.75;;;11.70;98.40;;;;;;5051680;28;20041;-53
2021/04/16 13:26:32;;;;;;;28.65;4.30;;;11.90;98.60;;;;;;5052901;28;20028;-56
2021/04/16 13:28:58;;;;;;;31.63;5.32;;;12.30;97.60;;;;;;5052077;28;20107;-59
2021/04/16 13:31:25;;;;;;;9.20;3.75;;;12.50;96.60;;;;;;5052335;28;20039;-59
2021/04/16 13:33:53;;;;;;;10.40;3.42;;;12.60;95.70;;;;;;5052246;28;20079;-57
2021/04/16 13:36:25;;;;;;;7.72;3.25;;;12.40;95.60;;;;;;5052799;28;20064;-58
2021/04/16 13:38:52;;;;;;;12.63;3.15;;;12.20;96.00;;;;;;5052688;28;20484;-58
2021/04/16 13:41:19;;;;;;;15.93;4.30;;;12.30;96.40;;;;;;5051299;28;20040;-58
2021/04/16 13:43:45;;;;;;;9.80;3.65;;;12.20;97.20;;;;;;5052579;28;20024;-57
2021/04/16 13:46:18;;;;;;;7.95;3.20;;;12.20;97.10;;;;;;5052018;28;20029;-57
2021/04/16 13:48:46;;;;;;;8.48;3.20;;;12.20;97.10;;;;;;5052041;28;20045;-59
2021/04/16 13:51:12;;;;;;;20.40;4.45;;;12.10;96.30;;;;;;5052440;28;20128;-55
2021/04/16 13:53:38;;;;;;;21.30;5.00;;;12.00;96.30;;;;;;5052374;28;20064;-58
2021/04/16 13:56:04;;;;;;;24.60;5.50;;;12.10;96.40;;;;;;5051171;28;20052;-55
2021/04/16 13:58:30;;;;;;;11.50;4.50;;;12.20;96.10;;;;;;5050900;28;20055;-58
2021/04/16 14:00:56;;;;;;;9.07;3.72;;;12.50;94.90;;;;;;5048822;28;20037;-58
2021/04/16 14:03:35;;;;;;;11.73;3.28;;;12.50;94.00;;;;;;5050689;28;20036;-56
2021/04/16 14:06:06;;;;;;;12.40;3.40;;;12.60;93.70;;;;;;5056049;28;20032;-58
2021/04/16 14:08:34;;;;;;;8.90;2.92;;;12.80;94.40;;;;;;5048653;28;20086;-57
2021/04/16 14:11:01;;;;;;;5.82;2.83;;;12.90;94.60;;;;;;5051596;28;20061;-57
2021/04/16 14:13:28;;;;;;;9.02;3.40;;;13.00;93.60;;;;;;5051397;28;20086;-59
2021/04/16 14:16:03;;;;;;;8.00;3.50;;;12.90;95.50;;;;;;5051916;28;20479;-57
2021/04/16 14:18:39;;;;;;;18.85;3.95;;;12.70;95.90;;;;;;5051389;28;20116;-58
2021/04/16 14:21:07;;;;;;;11.00;3.60;;;12.50;96.10;;;;;;5050964;28;20394;-56
2021/04/16 14:23:33;;;;;;;10.80;3.92;;;12.20;96.50;;;;;;5049966;28;20036;-56
2021/04/16 14:25:59;;;;;;;17.30;4.20;;;12.00;96.80;;;;;;5050853;28;20048;-57
2021/04/16 14:28:25;;;;;;;15.07;4.15;;;11.90;97.00;;;;;;5051082;28;20467;-58
2021/04/16 14:30:54;;;;;;;13.02;3.88;;;11.80;96.70;;;;;;5048128;28;20037;-55
2021/04/16 14:33:33;;;;;;;11.70;3.78;;;11.80;96.10;;;;;;5050977;28;20048;-55
2021/04/16 14:35:59;;;;;;;27.05;5.40;;;11.80;96.10;;;;;;5050859;28;20074;-58
2021/04/16 14:38:27;;;;;;;14.88;3.95;;;12.00;96.00;;;;;;5049828;28;20033;-58
2021/04/16 14:40:53;;;;;;;11.13;3.75;;;12.20;95.50;;;;;;5042169;28;20033;-57
2021/04/16 14:43:20;;;;;;;10.63;4.25;;;12.50;94.40;;;;;;5049687;28;20025;-59
2021/04/16 14:45:49;;;;;;;7.88;3.30;;;12.70;94.90;;;;;;5063668;28;20462;-55
2021/04/16 14:48:15;;;;;;;11.48;3.88;;;13.10;93.50;;;;;;5066223;28;20474;-58
2021/04/16 14:50:42;;;;;;;9.88;3.60;;;13.30;92.70;;;;;;5051802;28;20448;-58
2021/04/16 14:53:27;;;;;;;21.15;4.85;;;13.50;92.20;;;;;;5042779;28;20033;-61
2021/04/16 14:55:52;;;;;;;12.20;3.40;;;13.30;93.20;;;;;;5045437;28;20033;-58
2021/04/16 14:58:44;;;;;;;8.20;3.70;;;13.30;93.80;;;;;;5057102;28;20083;-55
2021/04/16 15:01:13;;;;;;;10.07;3.03;;;12.90;92.50;;;;;;5049638;28;20028;-56
2021/04/16 15:03:40;;;;;;;6.75;3.00;;;12.70;92.80;;;;;;5050652;28;20083;-57
2021/04/16 15:06:13;;;;;;;34.17;3.83;;;12.50;92.40;;;;;;5050962;28;20126;-58
2021/04/16 15:08:46;;;;;;;6.53;3.38;;;12.40;93.40;;;;;;5050837;28;20078;-54
2021/04/16 15:11:15;;;;;;;8.35;3.22;;;12.50;92.20;;;;;;5050655;28;20071;-56